createdAt,value
2019-01-20T00:02:27.306Z,100938.00
2019-01-20T00:04:58.374Z,100938.00
2019-01-20T00:07:29.498Z,100938.00
2019-01-20T00:10:00.604Z,100933.00
2019-01-20T00:12:31.518Z,100931.00
2019-01-20T00:15:02.889Z,100938.00
2019-01-20T00:17:33.969Z,100938.00
2019-01-20T00:20:05.772Z,100943.00
2019-01-20T00:22:36.780Z,100936.00
2019-01-20T00:25:08.588Z,100940.00
2019-01-20T00:27:39.452Z,100937.00
2019-01-20T00:30:11.821Z,100941.00
2019-01-20T00:32:42.826Z,100941.00
2019-01-20T00:35:15.804Z,100945.00
2019-01-20T00:37:47.486Z,100950.00
2019-01-20T00:40:18.608Z,100943.00
2019-01-20T00:42:49.695Z,100938.00
2019-01-20T00:45:20.918Z,100939.00
2019-01-20T00:47:52.059Z,100797.00
2019-01-20T00:50:23.512Z,100941.00
2019-01-20T00:52:54.667Z,100939.00
2019-01-20T00:55:26.202Z,100938.00
2019-01-20T00:57:57.274Z,100932.00
2019-01-20T01:00:31.764Z,100928.00
2019-01-20T01:03:02.791Z,100933.00
2019-01-20T01:05:33.984Z,100941.00
2019-01-20T01:08:05.275Z,100928.00
2019-01-20T01:10:36.411Z,100930.00
2019-01-20T01:13:08.355Z,100929.00
2019-01-20T01:15:39.380Z,100923.00
2019-01-20T01:18:10.411Z,100923.00
2019-01-20T01:20:41.948Z,100914.00
2019-01-20T01:23:13.275Z,100916.00
2019-01-20T01:25:45.320Z,100916.00
2019-01-20T01:28:16.479Z,100924.00
2019-01-20T01:30:47.655Z,100918.00
2019-01-20T01:33:18.619Z,100920.00
2019-01-20T01:35:49.673Z,100926.00
2019-01-20T01:38:20.679Z,100922.00
2019-01-20T01:40:51.691Z,100925.00
2019-01-20T01:43:22.644Z,100927.00
2019-01-20T01:45:53.647Z,100930.00
2019-01-20T01:48:24.598Z,100922.00
2019-01-20T01:50:55.542Z,100930.00
2019-01-20T01:53:26.537Z,100933.00
2019-01-20T01:55:57.568Z,100931.00
2019-01-20T01:58:28.461Z,100929.00
2019-01-20T02:00:59.653Z,100926.00
2019-01-20T02:03:30.811Z,100931.00
2019-01-20T02:06:02.144Z,100777.00
2019-01-20T02:08:33.391Z,100923.00
2019-01-20T02:11:04.783Z,100927.00
2019-01-20T02:13:35.924Z,100923.00
2019-01-20T02:16:07.217Z,100928.00
2019-01-20T02:18:38.562Z,100921.00
2019-01-20T02:21:09.677Z,100921.00
2019-01-20T02:23:40.933Z,100926.00
2019-01-20T02:26:11.997Z,100927.00
2019-01-20T02:28:42.955Z,100922.00
2019-01-20T02:31:14.019Z,100916.00
2019-01-20T02:33:44.962Z,100925.00
2019-01-20T02:36:16.165Z,100929.00
2019-01-20T02:38:47.239Z,100929.00
2019-01-20T02:41:18.358Z,100930.00
2019-01-20T02:43:49.217Z,100933.00
2019-01-20T02:46:20.416Z,100935.00
2019-01-20T02:48:51.354Z,100937.00
2019-01-20T02:51:22.241Z,100930.00
2019-01-20T02:53:53.231Z,100939.00
2019-01-20T02:56:24.358Z,100937.00
2019-01-20T02:58:55.257Z,100930.00
2019-01-20T03:01:26.367Z,100934.00
2019-01-20T03:03:57.300Z,100928.00
2019-01-20T03:06:28.349Z,100927.00
2019-01-20T03:08:59.227Z,100928.00
2019-01-20T03:11:30.151Z,100926.00
2019-01-20T03:14:01.032Z,100922.00
2019-01-20T03:16:32.001Z,100923.00
2019-01-20T03:19:04.325Z,100926.00
2019-01-20T03:21:35.283Z,100920.00
2019-01-20T03:24:06.485Z,100912.00
2019-01-20T03:26:37.551Z,100911.00
2019-01-20T03:29:08.555Z,100918.00
2019-01-20T03:31:39.466Z,100926.00
2019-01-20T03:34:10.314Z,100915.00
2019-01-20T03:37:00.470Z,100911.00
2019-01-20T03:39:31.336Z,100908.00
2019-01-20T03:42:02.319Z,100905.00
2019-01-20T03:44:33.188Z,100907.00
2019-01-20T03:47:05.254Z,100904.00
2019-01-20T03:49:36.197Z,100902.00
2019-01-20T03:52:07.341Z,100908.00
2019-01-20T03:54:38.216Z,100904.00
2019-01-20T03:57:09.337Z,100905.00
2019-01-20T03:59:40.543Z,100907.00
2019-01-20T04:02:11.809Z,100909.00
2019-01-20T04:04:42.850Z,100907.00
2019-01-20T04:07:13.817Z,100901.00
2019-01-20T04:09:50.565Z,100899.00
2019-01-20T04:12:21.739Z,100901.00
2019-01-20T04:14:52.778Z,100878.00
2019-01-20T04:17:24.124Z,100908.00
2019-01-20T04:19:55.342Z,100915.00
2019-01-20T04:22:26.301Z,100907.00
2019-01-20T04:24:57.400Z,100911.00
2019-01-20T04:27:28.414Z,100908.00
2019-01-20T04:29:59.409Z,100913.00
2019-01-20T04:32:49.699Z,100916.00
2019-01-20T04:35:21.843Z,100921.00
2019-01-20T04:37:52.751Z,100924.00
2019-01-20T04:40:24.814Z,100917.00
2019-01-20T04:42:55.805Z,100923.00
2019-01-20T04:45:26.873Z,100925.00
2019-01-20T04:47:57.926Z,100923.00
2019-01-20T04:50:28.979Z,100923.00
2019-01-20T04:53:00.206Z,100932.00
2019-01-20T04:55:31.338Z,100923.00
2019-01-20T04:58:02.383Z,100921.00
2019-01-20T05:00:33.368Z,100916.00
2019-01-20T05:03:04.380Z,100925.00
2019-01-20T05:05:35.337Z,100929.00
2019-01-20T05:08:06.538Z,100935.00
2019-01-20T05:10:37.519Z,100928.00
2019-01-20T05:13:08.510Z,100920.00
2019-01-20T05:15:39.469Z,100930.00
2019-01-20T05:18:10.469Z,100928.00
2019-01-20T05:20:41.435Z,100935.00
2019-01-20T05:23:12.406Z,100934.00
2019-01-20T05:25:43.390Z,100934.00
2019-01-20T05:28:14.290Z,100931.00
2019-01-20T05:30:45.250Z,100931.00
2019-01-20T05:33:16.209Z,100932.00
2019-01-20T05:35:47.164Z,100934.00
2019-01-20T05:38:18.111Z,100935.00
2019-01-20T05:40:48.981Z,100931.00
2019-01-20T05:43:19.900Z,100932.00
2019-01-20T05:45:50.797Z,100941.00
2019-01-20T05:48:21.716Z,100930.00
2019-01-20T05:50:52.573Z,100930.00
2019-01-20T05:53:23.638Z,100930.00
2019-01-20T05:55:54.512Z,100942.00
2019-01-20T05:58:26.742Z,100938.00
2019-01-20T06:00:57.614Z,100937.00
2019-01-20T06:03:28.511Z,100936.00
2019-01-20T06:05:59.398Z,100937.00
2019-01-20T06:08:30.716Z,100933.00
2019-01-20T06:11:01.638Z,100931.00
2019-01-20T06:13:32.590Z,100932.00
2019-01-20T06:16:03.456Z,100930.00
2019-01-20T06:18:34.361Z,100937.00
2019-01-20T06:21:05.316Z,100936.00
2019-01-20T06:23:36.202Z,100938.00
2019-01-20T06:26:07.130Z,100934.00
2019-01-20T06:28:39.532Z,100943.00
2019-01-20T06:31:10.584Z,100948.00
2019-01-20T06:33:41.760Z,100947.00
2019-01-20T06:36:12.748Z,100956.00
2019-01-20T06:38:43.817Z,100951.00
2019-01-20T06:41:26.932Z,100954.00
2019-01-20T06:43:57.860Z,100952.00
2019-01-20T06:46:28.764Z,100956.00
2019-01-20T06:49:19.165Z,100957.00
2019-01-20T06:51:50.214Z,100953.00
2019-01-20T06:54:21.132Z,100961.00
2019-01-20T06:56:52.052Z,100956.00
2019-01-20T06:59:24.532Z,100954.00
2019-01-20T07:01:55.516Z,100967.00
2019-01-20T07:04:26.536Z,100972.00
2019-01-20T07:06:58.284Z,100980.00
2019-01-20T07:09:29.249Z,100981.00
2019-01-20T07:12:00.172Z,100978.00
2019-01-20T07:14:32.841Z,100985.00
2019-01-20T07:17:05.928Z,100993.00
2019-01-20T07:19:39.097Z,100999.00
2019-01-20T07:22:12.519Z,100992.00
2019-01-20T07:24:43.637Z,100996.00
2019-01-20T07:27:14.566Z,101000.00
2019-01-20T07:29:45.408Z,101011.00
2019-01-20T07:32:16.445Z,101010.00
2019-01-20T07:34:47.344Z,101014.00
2019-01-20T07:37:18.339Z,101011.00
2019-01-20T07:39:49.280Z,101012.00
2019-01-20T07:42:20.150Z,101013.00
2019-01-20T07:44:51.122Z,101012.00
2019-01-20T07:47:21.988Z,101015.00
2019-01-20T07:49:52.999Z,101016.00
2019-01-20T07:52:23.977Z,101026.00
2019-01-20T07:54:55.422Z,101028.00
2019-01-20T07:57:26.587Z,101031.00
2019-01-20T07:59:57.618Z,101032.00
2019-01-20T08:02:31.149Z,101029.00
2019-01-20T08:05:02.192Z,101028.00
2019-01-20T08:07:34.242Z,101035.00
2019-01-20T08:10:08.316Z,101032.00
2019-01-20T08:12:39.284Z,101034.00
2019-01-20T08:15:11.842Z,101036.00
2019-01-20T08:17:42.992Z,101033.00
2019-01-20T08:20:17.370Z,101043.00
2019-01-20T08:22:48.608Z,101047.00
2019-01-20T08:25:20.533Z,101060.00
2019-01-20T08:27:51.500Z,101049.00
2019-01-20T08:30:26.339Z,101057.00
2019-01-20T08:32:57.671Z,101056.00
2019-01-20T08:35:28.682Z,101052.00
2019-01-20T08:37:59.747Z,101065.00
2019-01-20T08:40:34.499Z,101062.00
2019-01-20T08:43:05.722Z,101070.00
2019-01-20T08:46:29.063Z,101067.00
2019-01-20T08:48:59.987Z,101065.00
2019-01-20T08:51:31.627Z,101065.00
2019-01-20T08:54:02.628Z,101077.00
2019-01-20T08:56:34.839Z,101079.00
2019-01-20T08:59:06.029Z,101083.00
2019-01-20T09:01:37.280Z,101082.00
2019-01-20T09:04:09.048Z,101085.00
2019-01-20T09:06:40.524Z,101091.00
2019-01-20T09:09:11.608Z,101087.00
2019-01-20T09:11:43.023Z,101089.00
2019-01-20T09:14:14.085Z,101103.00
2019-01-20T09:16:45.205Z,101094.00
2019-01-20T09:19:16.398Z,101095.00
2019-01-20T09:21:47.473Z,101091.00
2019-01-20T09:24:18.539Z,101107.00
2019-01-20T09:26:49.681Z,101100.00
2019-01-20T09:29:20.761Z,101099.00
2019-01-20T09:31:51.910Z,101101.00
2019-01-20T09:34:22.991Z,101101.00
2019-01-20T09:36:54.022Z,101109.00
2019-01-20T09:39:24.982Z,101108.00
2019-01-20T09:41:55.980Z,101123.00
2019-01-20T09:44:26.886Z,101112.00
2019-01-20T09:46:57.858Z,101116.00
2019-01-20T09:49:28.846Z,101110.00
2019-01-20T09:51:59.819Z,101117.00
2019-01-20T09:54:30.931Z,101120.00
2019-01-20T09:57:01.917Z,101116.00
2019-01-20T09:59:33.016Z,101118.00
2019-01-20T10:02:04.155Z,101125.00
2019-01-20T10:04:35.266Z,101119.00
2019-01-20T10:07:06.713Z,101123.00
2019-01-20T10:09:37.654Z,101123.00
2019-01-20T10:12:08.687Z,101131.00
2019-01-20T10:14:39.698Z,101118.00
2019-01-20T10:17:10.712Z,101122.00
2019-01-20T10:19:42.131Z,101111.00
2019-01-20T10:22:13.151Z,101118.00
2019-01-20T10:24:44.053Z,101130.00
2019-01-20T10:27:15.045Z,101131.00
2019-01-20T10:29:45.979Z,101132.00
2019-01-20T10:32:17.060Z,101139.00
2019-01-20T10:34:48.408Z,101144.00
2019-01-20T10:37:19.754Z,101141.00
2019-01-20T10:39:50.922Z,101140.00
2019-01-20T10:42:22.783Z,101136.00
2019-01-20T10:44:54.529Z,101142.00
2019-01-20T10:47:26.563Z,101140.00
2019-01-20T10:49:57.769Z,101141.00
2019-01-20T10:52:31.143Z,101143.00
2019-01-20T10:58:19.568Z,101146.00
2019-01-20T11:00:57.141Z,101147.00
2019-01-20T11:03:29.295Z,101139.00
2019-01-20T11:06:06.701Z,101145.00
2019-01-20T11:08:40.314Z,101153.00
2019-01-20T11:11:29.591Z,101144.00
2019-01-20T11:14:00.945Z,101149.00
2019-01-20T11:16:32.836Z,101146.00
2019-01-20T11:19:05.642Z,101154.00
2019-01-20T11:21:37.918Z,101147.00
2019-01-20T11:24:09.255Z,101158.00
2019-01-20T11:26:40.744Z,101148.00
2019-01-20T11:29:12.840Z,101145.00
2019-01-20T11:31:44.070Z,101159.00
2019-01-20T11:34:15.166Z,101149.00
2019-01-20T11:36:46.191Z,101152.00
2019-01-20T11:39:17.129Z,101148.00
2019-01-20T11:41:48.092Z,101152.00
2019-01-20T11:44:19.359Z,101152.00
2019-01-20T11:46:50.562Z,101155.00
2019-01-20T11:49:21.577Z,101145.00
2019-01-20T11:51:52.819Z,101148.00
2019-01-20T11:54:23.885Z,101147.00
2019-01-20T11:56:55.878Z,101151.00
2019-01-20T11:59:26.873Z,101158.00
2019-01-20T12:01:57.826Z,101152.00
2019-01-20T12:04:39.400Z,101157.00
2019-01-20T12:07:10.773Z,101149.00
2019-01-20T12:09:42.107Z,101157.00
2019-01-20T12:12:13.402Z,101155.00
2019-01-20T12:14:44.785Z,101150.00
2019-01-20T12:17:16.581Z,101153.00
2019-01-20T12:19:48.080Z,101147.00
2019-01-20T12:22:19.460Z,101150.00
2019-01-20T12:24:53.584Z,101154.00
2019-01-20T12:27:32.127Z,101147.00
2019-01-20T12:30:03.395Z,101152.00
2019-01-20T12:32:34.358Z,101152.00
2019-01-20T12:35:05.887Z,101160.00
2019-01-20T12:37:38.493Z,101155.00
2019-01-20T12:40:24.606Z,101149.00
2019-01-20T12:42:56.771Z,101152.00
2019-01-20T12:45:27.919Z,101155.00
2019-01-20T12:48:00.774Z,101153.00
2019-01-20T12:50:31.704Z,101143.00
2019-01-20T12:53:02.645Z,101150.00
2019-01-20T12:55:48.401Z,101142.00
2019-01-20T12:58:19.878Z,101155.00
2019-01-20T13:00:51.121Z,101146.00
2019-01-20T13:03:24.518Z,101147.00
2019-01-20T13:05:55.762Z,101142.00
2019-01-20T13:08:26.885Z,101154.00
2019-01-20T13:10:57.828Z,101158.00
2019-01-20T13:13:32.021Z,101160.00
2019-01-20T13:16:04.729Z,101157.00
2019-01-20T13:18:36.876Z,101163.00
2019-01-20T13:21:08.146Z,101159.00
2019-01-20T13:23:39.409Z,101156.00
2019-01-20T13:26:10.327Z,101158.00
2019-01-20T13:28:41.411Z,101165.00
2019-01-20T13:31:12.502Z,101165.00
2019-01-20T13:33:43.406Z,101174.00
2019-01-20T13:36:14.484Z,101166.00
2019-01-20T13:38:45.479Z,101163.00
2019-01-20T13:41:22.815Z,101164.00
2019-01-20T13:43:55.677Z,101165.00
2019-01-20T13:46:30.021Z,101168.00
2019-01-20T13:49:01.061Z,101155.00
2019-01-20T13:51:32.205Z,101173.00
2019-01-20T13:54:03.379Z,101178.00
2019-01-20T13:56:34.379Z,101180.00
2019-01-20T13:59:05.447Z,101174.00
2019-01-20T14:01:36.580Z,101178.00
2019-01-20T14:04:07.681Z,101185.00
2019-01-20T14:06:38.735Z,101181.00
2019-01-20T14:09:10.621Z,101183.00
2019-01-20T14:11:41.879Z,101182.00
2019-01-20T14:14:12.877Z,101190.00
2019-01-20T14:16:43.767Z,101190.00
2019-01-20T14:19:21.506Z,101184.00
2019-01-20T14:21:48.483Z,101186.00
2019-01-20T14:24:19.562Z,101187.00
2019-01-20T14:26:50.903Z,101195.00
2019-01-20T14:29:21.903Z,101191.00
2019-01-20T14:31:52.854Z,101193.00
2019-01-20T14:34:23.865Z,101202.00
2019-01-20T14:36:54.810Z,101200.00
2019-01-20T14:39:25.760Z,101201.00
2019-01-20T14:41:56.804Z,101203.00
2019-01-20T14:44:27.703Z,101205.00
2019-01-20T14:46:58.771Z,101204.00
2019-01-20T14:49:30.789Z,101199.00
2019-01-20T14:52:01.757Z,101206.00
2019-01-20T14:54:32.948Z,101204.00
2019-01-20T14:57:04.505Z,101211.00
2019-01-20T14:59:35.761Z,101217.00
2019-01-20T15:02:06.904Z,101212.00
2019-01-20T15:04:38.072Z,101207.00
2019-01-20T15:07:09.349Z,101210.00
2019-01-20T15:09:40.541Z,101209.00
2019-01-20T15:12:11.754Z,101213.00
2019-01-20T15:14:42.888Z,101221.00
2019-01-20T15:17:14.062Z,101212.00
2019-01-20T15:19:45.062Z,101215.00
2019-01-20T15:22:17.076Z,101219.00
2019-01-20T15:24:48.070Z,101220.00
2019-01-20T15:27:18.983Z,101218.00
2019-01-20T15:29:50.001Z,101219.00
2019-01-20T15:32:20.994Z,101223.00
2019-01-20T15:34:51.996Z,101226.00
2019-01-20T15:37:42.640Z,101223.00
2019-01-20T15:40:15.535Z,101219.00
2019-01-20T15:42:47.236Z,101213.00
2019-01-20T15:45:19.862Z,101220.00
2019-01-20T15:47:52.556Z,101225.00
2019-01-20T15:50:29.970Z,101222.00
2019-01-20T15:53:01.949Z,101228.00
2019-01-20T15:55:33.217Z,101226.00
2019-01-20T15:58:04.421Z,101224.00
2019-01-20T16:00:35.387Z,101222.00
2019-01-20T16:03:06.698Z,101231.00
2019-01-20T16:05:37.618Z,101232.00
2019-01-20T16:08:08.591Z,101225.00
2019-01-20T16:10:39.574Z,101224.00
2019-01-20T16:13:10.577Z,101232.00
2019-01-20T16:15:41.556Z,101223.00
2019-01-20T16:18:14.298Z,101235.00
2019-01-20T16:20:45.213Z,101244.00
2019-01-20T16:23:16.360Z,101241.00
2019-01-20T16:25:47.494Z,101252.00
2019-01-20T16:28:19.034Z,101238.00
2019-01-20T16:30:52.732Z,101248.00
2019-01-20T16:33:25.034Z,101261.00
2019-01-20T16:35:56.158Z,101260.00
2019-01-20T16:38:46.380Z,101267.00
2019-01-20T16:41:17.590Z,101259.00
2019-01-20T16:43:48.787Z,101268.00
2019-01-20T16:46:19.929Z,101260.00
2019-01-20T16:48:51.119Z,101257.00
2019-01-20T16:51:25.155Z,101261.00
2019-01-20T16:53:56.465Z,101252.00
2019-01-20T16:56:27.842Z,101260.00
2019-01-20T16:58:58.967Z,101267.00
2019-01-20T17:01:30.086Z,101274.00
2019-01-20T17:04:01.254Z,101274.00
2019-01-20T17:06:32.744Z,101272.00
2019-01-20T17:09:05.309Z,101270.00
2019-01-20T17:11:36.620Z,101269.00
2019-01-20T17:14:07.798Z,101276.00
2019-01-20T17:16:38.915Z,101274.00
2019-01-20T17:19:17.222Z,101274.00
2019-01-20T17:21:42.783Z,101279.00
2019-01-20T17:24:13.804Z,101278.00
2019-01-20T17:26:44.766Z,101283.00
2019-01-20T17:29:15.690Z,101281.00
2019-01-20T17:31:46.751Z,101290.00
2019-01-20T17:34:17.753Z,101286.00
2019-01-20T17:36:48.740Z,101285.00
2019-01-20T17:39:19.776Z,101298.00
2019-01-20T17:41:50.714Z,101293.00
2019-01-20T17:44:21.714Z,101293.00
2019-01-20T17:46:52.720Z,101293.00
2019-01-20T17:49:23.729Z,101298.00
2019-01-20T17:51:58.279Z,101301.00
2019-01-20T17:54:29.455Z,101301.00
2019-01-20T17:57:00.501Z,101302.00
2019-01-20T17:59:32.068Z,101302.00
2019-01-20T18:02:07.219Z,101304.00
2019-01-20T18:04:38.484Z,101307.00
2019-01-20T18:07:09.713Z,101304.00
2019-01-20T18:09:40.920Z,101301.00
2019-01-20T18:12:11.967Z,101304.00
2019-01-20T18:14:43.335Z,101307.00
2019-01-20T18:17:14.209Z,101317.00
2019-01-20T18:19:45.428Z,101314.00
2019-01-20T18:22:16.693Z,101320.00
2019-01-20T18:24:51.563Z,101315.00
2019-01-20T18:27:22.617Z,101321.00
2019-01-20T18:29:53.685Z,101322.00
2019-01-20T18:32:24.633Z,101329.00
2019-01-20T18:34:55.979Z,101328.00
2019-01-20T18:37:26.991Z,101327.00
2019-01-20T18:39:58.109Z,101325.00
2019-01-20T18:42:31.441Z,101325.00
2019-01-20T18:45:02.760Z,101332.00
2019-01-20T18:47:36.535Z,101337.00
2019-01-20T18:50:09.579Z,101336.00
2019-01-20T18:52:43.963Z,101330.00
2019-01-20T18:55:15.834Z,101332.00
2019-01-20T18:57:47.339Z,101333.00
2019-01-20T19:00:33.291Z,101341.00
2019-01-20T19:03:04.742Z,101343.00
2019-01-20T19:05:36.018Z,101345.00
2019-01-20T19:08:08.134Z,101351.00
2019-01-20T19:10:39.340Z,101351.00
2019-01-20T19:13:10.738Z,101348.00
2019-01-20T19:15:43.947Z,101348.00
2019-01-20T19:18:19.153Z,101349.00
2019-01-20T19:20:54.589Z,101350.00
2019-01-20T19:23:25.591Z,101359.00
2019-01-20T19:25:57.724Z,101359.00
2019-01-20T19:28:28.982Z,101362.00
2019-01-20T19:31:00.136Z,101359.00
2019-01-20T19:33:33.662Z,101365.00
2019-01-20T19:36:04.857Z,101361.00
2019-01-20T19:38:35.834Z,101365.00
2019-01-20T19:41:06.972Z,101365.00
2019-01-20T19:43:38.028Z,101362.00
2019-01-20T19:46:16.093Z,101364.00
2019-01-20T19:48:42.738Z,101362.00
2019-01-20T19:51:13.895Z,101374.00
2019-01-20T19:53:44.920Z,101369.00
2019-01-20T19:56:18.069Z,101371.00
2019-01-20T19:59:00.324Z,101369.00
2019-01-20T20:01:30.789Z,101380.00
2019-01-20T20:03:59.017Z,101381.00
2019-01-20T20:06:35.045Z,101383.00
2019-01-20T20:09:12.714Z,101373.00
2019-01-20T20:11:43.830Z,101385.00
2019-01-20T20:14:14.938Z,101384.00
2019-01-20T20:16:45.870Z,101378.00
2019-01-20T20:19:16.813Z,101389.00
2019-01-20T20:21:47.824Z,101392.00
2019-01-20T20:24:25.120Z,101394.00
2019-01-20T20:26:51.550Z,101402.00
2019-01-20T20:29:22.515Z,101404.00
2019-01-20T20:32:12.998Z,101402.00
2019-01-20T20:34:44.938Z,101399.00
2019-01-20T20:37:15.914Z,101400.00
2019-01-20T20:39:46.865Z,101395.00
2019-01-20T20:42:17.879Z,101411.00
2019-01-20T20:44:48.797Z,101412.00
2019-01-20T20:47:19.889Z,101415.00
2019-01-20T20:49:50.913Z,101424.00
2019-01-20T20:52:21.973Z,101413.00
2019-01-20T20:54:53.135Z,101415.00
2019-01-20T20:57:24.941Z,101425.00
2019-01-20T20:59:56.165Z,101433.00
2019-01-20T21:02:27.429Z,101438.00
2019-01-20T21:04:58.472Z,101439.00
2019-01-20T21:07:29.614Z,101438.00
2019-01-20T21:10:00.734Z,101424.00
2019-01-20T21:12:31.939Z,101435.00
2019-01-20T21:15:03.620Z,101434.00
2019-01-20T21:17:35.287Z,101436.00
2019-01-20T21:20:09.995Z,101377.00
2019-01-20T21:22:41.009Z,101432.00
2019-01-20T21:25:12.922Z,101435.00
2019-01-20T21:28:03.167Z,101435.00
2019-01-20T21:30:34.664Z,101433.00
2019-01-20T21:33:06.159Z,101435.00
2019-01-20T21:35:37.671Z,101439.00
2019-01-20T21:38:09.263Z,101439.00
2019-01-20T21:40:40.592Z,101436.00
2019-01-20T21:43:11.882Z,101438.00
2019-01-20T21:45:43.118Z,101445.00
2019-01-20T21:48:14.216Z,101447.00
2019-01-20T21:50:45.513Z,101444.00
2019-01-20T21:53:16.661Z,101441.00
2019-01-20T21:55:49.505Z,101440.00
2019-01-20T21:58:20.719Z,101437.00
2019-01-20T22:00:53.457Z,101438.00
2019-01-20T22:03:24.540Z,101438.00
2019-01-20T22:05:55.564Z,101441.00
2019-01-20T22:08:26.610Z,101440.00
2019-01-20T22:10:57.615Z,101442.00
2019-01-20T22:13:28.693Z,101445.00
2019-01-20T22:15:59.660Z,101446.00
2019-01-20T22:18:30.700Z,101454.00
2019-01-20T22:21:01.801Z,101453.00
2019-01-20T22:23:32.791Z,101448.00
2019-01-20T22:26:06.162Z,101449.00
2019-01-20T22:28:37.186Z,101457.00
2019-01-20T22:31:08.258Z,101456.00
2019-01-20T22:33:39.190Z,101455.00
2019-01-20T22:36:10.230Z,101468.00
2019-01-20T22:38:41.265Z,101456.00
2019-01-20T22:41:12.254Z,101455.00
2019-01-20T22:43:43.527Z,101452.00
2019-01-20T22:46:14.642Z,101453.00
2019-01-20T22:48:45.659Z,101458.00
2019-01-20T22:51:16.745Z,101449.00
2019-01-20T22:53:47.752Z,101445.00
2019-01-20T22:56:19.804Z,101448.00
2019-01-20T22:58:51.156Z,101449.00
2019-01-20T23:01:24.242Z,101446.00
2019-01-20T23:03:55.918Z,101413.00
2019-01-20T23:06:27.106Z,101459.00
2019-01-20T23:08:58.570Z,101468.00
2019-01-20T23:11:29.688Z,101456.00
2019-01-20T23:14:00.700Z,101465.00
2019-01-20T23:16:32.748Z,101467.00
2019-01-20T23:19:03.776Z,101461.00
2019-01-20T23:21:34.695Z,101465.00
2019-01-20T23:24:06.151Z,101471.00
2019-01-20T23:26:37.202Z,101473.00
2019-01-20T23:29:08.256Z,101472.00
2019-01-20T23:31:39.322Z,101477.00
2019-01-20T23:34:10.402Z,101477.00
2019-01-20T23:36:41.435Z,101480.00
2019-01-20T23:39:12.513Z,101472.00
2019-01-20T23:41:43.720Z,101482.00
2019-01-20T23:44:16.882Z,101481.00
2019-01-20T23:46:47.823Z,101470.00
2019-01-20T23:49:18.862Z,101469.00
2019-01-20T23:51:49.859Z,101458.00
2019-01-20T23:54:20.782Z,101461.00
2019-01-20T23:56:51.668Z,101460.00
2019-01-20T23:59:22.726Z,101460.00
